Terminal Aerodrome Forecast
Issued by NWS San Angelo, TX

Home | Current Version | Previous Version | Text Only | Print | Product List | Glossary On
Versions: 1 2 3 4 5 6 7 8 9 10 11 12 13 14 15 16 17 18 19
099
FTUS44 KSJT 232322
TAFSJT
TAF
KSJT 232322Z 2400/2424 08010KT P6SM VCTS BKN060CB BKN150
     FM240300 VRB06KT P6SM BKN070
     FM241200 VRB06KT P6SM BKN025 OVC050
     FM241500 VRB06KT P6SM OVC050
     FM241800 VRB06KT P6SM OVC050 PROB30 2418/2424 P6SM TS BKN050CB=

USA.gov is the U.S. government's official web portal to all federal, state and local government web resources and services.